createdAt,value
2023-05-09T00:00:05.357Z,102001.41
2023-05-09T00:05:30.720Z,102003.81
2023-05-09T00:10:36.329Z,101999.14
2023-05-09T00:15:42.031Z,101997.35
2023-05-09T00:20:47.627Z,101995.56
2023-05-09T00:25:53.122Z,101992.70
2023-05-09T00:30:58.513Z,101991.75
2023-05-09T00:36:04.283Z,101986.38
2023-05-09T00:41:09.850Z,101986.85
2023-05-09T00:46:15.329Z,101985.11
2023-05-09T00:51:21.889Z,101985.85
2023-05-09T00:56:27.486Z,101985.10
2023-05-09T01:01:32.925Z,101982.85
2023-05-09T01:06:48.785Z,101979.17
2023-05-09T01:12:11.979Z,101978.61
2023-05-09T01:17:27.771Z,101981.30
2023-05-09T01:22:36.439Z,101984.90
2023-05-09T01:27:53.619Z,101983.45
2023-05-09T01:33:05.250Z,101980.33
2023-05-09T01:38:16.887Z,101979.92
2023-05-09T01:43:25.834Z,101981.30
2023-05-09T01:48:34.777Z,101982.45
2023-05-09T01:53:42.385Z,101978.54
2023-05-09T01:58:50.084Z,101976.33
2023-05-09T02:03:56.167Z,101976.70
2023-05-09T02:09:03.061Z,101972.30
2023-05-09T02:14:08.706Z,101965.41
2023-05-09T02:19:14.109Z,101967.27
2023-05-09T02:24:19.648Z,101967.71
2023-05-09T02:29:30.964Z,101970.39
2023-05-09T02:34:37.841Z,101966.98
2023-05-09T02:39:44.147Z,101971.19
2023-05-09T02:44:49.582Z,101969.21
2023-05-09T02:49:55.338Z,101968.94
2023-05-09T02:55:00.861Z,101973.19
2023-05-09T03:00:11.645Z,101984.21
2023-05-09T03:05:18.323Z,101978.55
2023-05-09T03:10:23.838Z,101981.67
2023-05-09T03:15:29.559Z,101986.96
2023-05-09T03:20:36.491Z,101983.90
2023-05-09T03:25:42.411Z,101986.66
2023-05-09T03:30:48.096Z,101977.92
2023-05-09T03:35:54.662Z,101981.48
2023-05-09T03:41:00.466Z,101988.54
2023-05-09T03:46:06.529Z,101986.23
2023-05-09T03:51:13.041Z,101987.02
2023-05-09T03:56:19.979Z,101991.06
2023-05-09T04:01:28.443Z,101989.47
2023-05-09T04:06:35.811Z,101984.99
2023-05-09T04:11:41.721Z,101978.98
2023-05-09T04:16:49.484Z,101977.97
2023-05-09T04:21:55.040Z,101977.20
2023-05-09T04:27:01.135Z,101968.85
2023-05-09T04:32:06.958Z,101960.55
2023-05-09T04:37:13.295Z,101960.10
2023-05-09T04:42:21.022Z,101955.79
2023-05-09T04:47:26.634Z,101956.06
2023-05-09T04:52:32.108Z,101959.55
2023-05-09T04:57:37.486Z,101953.63
2023-05-09T05:02:43.054Z,101957.31
2023-05-09T05:07:48.672Z,101952.58
2023-05-09T05:12:56.499Z,101952.02
2023-05-09T05:18:02.280Z,101950.56
2023-05-09T05:23:13.420Z,101952.73
2023-05-09T05:28:18.885Z,101954.63
2023-05-09T05:33:30.732Z,101953.35
2023-05-09T05:38:37.676Z,101950.48
2023-05-09T05:43:43.345Z,101948.56
2023-05-09T05:48:49.179Z,101949.73
2023-05-09T05:54:06.329Z,101947.83
2023-05-09T05:59:13.569Z,101943.84
2023-05-09T06:04:19.799Z,101943.36
2023-05-09T06:09:26.176Z,101940.99
2023-05-09T06:14:31.618Z,101937.36
2023-05-09T06:19:37.786Z,101937.88
2023-05-09T06:24:43.432Z,101937.23
2023-05-09T06:29:49.100Z,101936.50
2023-05-09T06:34:54.659Z,101935.92
2023-05-09T06:40:00.299Z,101931.23
2023-05-09T06:45:07.048Z,101934.17
2023-05-09T06:50:11.379Z,101933.70
2023-05-09T06:55:17.304Z,101930.50
2023-05-09T07:00:23.912Z,101928.84
2023-05-09T07:05:29.435Z,101922.13
2023-05-09T07:10:35.286Z,101919.15
2023-05-09T07:15:42.714Z,101913.03
2023-05-09T07:20:48.868Z,101901.95
2023-05-09T07:25:58.851Z,101897.70
2023-05-09T07:31:05.974Z,101902.15
2023-05-09T07:36:13.642Z,101896.98
2023-05-09T07:41:18.920Z,101889.29
2023-05-09T07:46:24.326Z,101887.31
2023-05-09T07:51:29.850Z,101883.13
2023-05-09T07:56:35.232Z,101886.70
2023-05-09T08:01:40.762Z,101883.95
2023-05-09T08:06:46.360Z,101876.04
2023-05-09T08:11:52.185Z,101868.88
2023-05-09T08:16:57.889Z,101860.84
2023-05-09T08:22:03.375Z,101864.02
2023-05-09T08:27:08.685Z,101862.29
2023-05-09T08:32:14.404Z,101848.61
2023-05-09T08:37:19.781Z,101848.23
2023-05-09T08:42:27.153Z,101852.09
2023-05-09T08:47:36.998Z,101853.99
2023-05-09T08:52:42.820Z,101841.54
2023-05-09T08:57:48.956Z,101835.21
2023-05-09T09:02:56.565Z,101833.04
2023-05-09T09:08:03.876Z,101824.20
2023-05-09T09:13:10.071Z,101825.38
2023-05-09T09:18:20.990Z,101821.34
2023-05-09T09:23:28.934Z,101819.11
2023-05-09T09:28:35.017Z,101831.09
2023-05-09T09:33:40.479Z,101824.13
2023-05-09T09:38:46.053Z,101809.55
2023-05-09T09:43:51.602Z,101806.08
2023-05-09T09:48:59.097Z,101805.02
2023-05-09T09:54:06.710Z,101801.63
2023-05-09T09:59:14.275Z,101799.44
2023-05-09T10:04:19.798Z,101800.55
2023-05-09T10:09:26.793Z,101797.45
2023-05-09T10:14:35.289Z,101783.85
2023-05-09T10:19:45.907Z,101777.76
2023-05-09T10:25:03.767Z,101772.63
2023-05-09T10:30:13.738Z,101777.49
2023-05-09T10:35:20.862Z,101769.16
2023-05-09T10:40:27.859Z,101769.76
2023-05-09T10:45:34.115Z,101763.29
2023-05-09T10:50:40.673Z,101753.03
2023-05-09T10:55:56.428Z,101752.16
2023-05-09T11:01:03.709Z,101749.08
2023-05-09T11:06:09.361Z,101748.41
2023-05-09T11:11:27.047Z,101739.62
2023-05-09T11:16:52.414Z,101739.80
2023-05-09T11:22:13.639Z,101731.06
2023-05-09T11:27:22.792Z,101708.91
2023-05-09T11:32:44.477Z,101712.56
2023-05-09T11:37:58.497Z,101701.96
2023-05-09T11:43:22.794Z,101690.56
2023-05-09T11:48:40.372Z,101684.19
2023-05-09T11:53:49.710Z,101670.79
2023-05-09T11:58:55.407Z,101660.97
2023-05-09T12:04:02.220Z,101660.81
2023-05-09T12:09:09.152Z,101654.13
2023-05-09T12:14:29.097Z,101647.56
2023-05-09T12:19:34.596Z,101649.09
2023-05-09T12:24:40.007Z,101645.17
2023-05-09T12:29:47.593Z,101628.73
2023-05-09T12:34:54.235Z,101625.88
2023-05-09T12:40:11.252Z,101617.88
2023-05-09T12:45:17.316Z,101609.63
2023-05-09T12:50:31.090Z,101600.25
2023-05-09T12:55:41.934Z,101597.42
2023-05-09T13:00:47.571Z,101600.13
2023-05-09T13:06:05.367Z,101594.34
2023-05-09T13:11:16.754Z,101588.40
2023-05-09T13:16:22.866Z,101575.44
2023-05-09T13:21:31.565Z,101575.55
2023-05-09T13:26:36.987Z,101575.05
2023-05-09T13:31:42.470Z,101572.60
2023-05-09T13:36:47.836Z,101561.55
2023-05-09T13:41:53.363Z,101550.73
2023-05-09T13:47:00.340Z,101550.16
2023-05-09T13:52:06.757Z,101545.36
2023-05-09T13:57:12.634Z,101534.37
2023-05-09T14:02:18.825Z,101534.97
2023-05-09T14:07:24.490Z,101526.63
2023-05-09T14:12:30.282Z,101515.51
2023-05-09T14:17:35.654Z,101509.23
2023-05-09T14:22:41.673Z,101503.38
2023-05-09T14:27:47.577Z,101496.64
2023-05-09T14:32:52.914Z,101499.39
2023-05-09T14:37:58.503Z,101493.31
2023-05-09T14:43:03.828Z,101494.95
2023-05-09T14:48:10.474Z,101491.31
2023-05-09T14:53:17.055Z,101487.53
2023-05-09T14:58:23.794Z,101487.59
2023-05-09T15:03:29.120Z,101484.42
2023-05-09T15:08:35.639Z,101469.27
2023-05-09T15:13:41.042Z,101466.06
2023-05-09T15:18:47.641Z,101461.34
2023-05-09T15:23:53.266Z,101453.64
2023-05-09T15:28:58.948Z,101453.05
2023-05-09T15:34:06.712Z,101449.59
2023-05-09T15:39:12.545Z,101440.27
2023-05-09T15:44:18.101Z,101441.90
2023-05-09T15:49:23.438Z,101432.89
2023-05-09T15:54:31.841Z,101434.41
2023-05-09T15:59:37.234Z,101429.27
2023-05-09T16:04:44.069Z,101423.81
2023-05-09T16:09:50.044Z,101422.36
2023-05-09T16:14:55.464Z,101416.02
2023-05-09T16:20:04.132Z,101405.02
2023-05-09T16:25:14.654Z,101399.73
2023-05-09T16:30:20.156Z,101395.85
2023-05-09T16:35:25.962Z,101396.46
2023-05-09T16:40:32.137Z,101391.68
2023-05-09T16:45:37.646Z,101382.48
2023-05-09T16:50:44.280Z,101382.20
2023-05-09T16:55:49.815Z,101379.45
2023-05-09T17:00:55.428Z,101375.21
2023-05-09T17:06:01.170Z,101368.14
2023-05-09T17:11:06.832Z,101365.98
2023-05-09T17:16:12.629Z,101365.91
2023-05-09T17:21:20.206Z,101362.38
2023-05-09T17:26:26.023Z,101362.50
2023-05-09T17:31:32.160Z,101363.70
2023-05-09T17:36:40.074Z,101361.96
2023-05-09T17:41:46.376Z,101362.15
2023-05-09T17:46:51.834Z,101361.52
2023-05-09T17:51:57.392Z,101362.62
2023-05-09T17:57:03.233Z,101363.94
2023-05-09T18:02:08.905Z,101368.02
2023-05-09T18:07:14.531Z,101365.47
2023-05-09T18:12:20.431Z,101367.17
2023-05-09T18:17:25.891Z,101367.46
2023-05-09T18:22:33.179Z,101369.39
2023-05-09T18:27:39.283Z,101369.43
2023-05-09T18:32:44.747Z,101369.98
2023-05-09T18:37:50.647Z,101372.98
2023-05-09T18:42:56.283Z,101373.63
2023-05-09T18:48:02.809Z,101377.52
2023-05-09T18:53:08.265Z,101381.67
2023-05-09T18:58:13.769Z,101382.48
2023-05-09T19:03:19.187Z,101385.78
2023-05-09T19:08:26.288Z,101383.88
2023-05-09T19:13:37.033Z,101382.60
2023-05-09T19:18:42.595Z,101380.06
2023-05-09T19:23:49.217Z,101380.41
2023-05-09T19:28:55.225Z,101376.92
2023-05-09T19:34:01.235Z,101375.02
2023-05-09T19:39:09.267Z,101374.65
2023-05-09T19:44:15.553Z,101367.46
2023-05-09T19:49:20.920Z,101371.94
2023-05-09T19:54:27.251Z,101370.81
2023-05-09T19:59:32.619Z,101369.91
2023-05-09T20:04:39.070Z,101369.02
2023-05-09T20:09:44.475Z,101366.05
2023-05-09T20:14:49.872Z,101370.01
2023-05-09T20:19:57.707Z,101366.27
2023-05-09T20:25:11.342Z,101364.83
2023-05-09T20:30:34.460Z,101365.61
2023-05-09T20:36:06.621Z,101364.56
2023-05-09T20:41:12.696Z,101366.02
2023-05-09T20:47:24.376Z,101361.19
2023-05-09T20:53:17.439Z,101357.05
2023-05-09T20:58:28.178Z,101357.11
2023-05-09T21:03:37.589Z,101359.20
2023-05-09T21:08:44.365Z,101358.34
2023-05-09T21:13:49.903Z,101358.20
2023-05-09T21:18:55.432Z,101355.45
2023-05-09T21:24:03.308Z,101357.71
2023-05-09T21:29:09.288Z,101354.44
2023-05-09T21:34:14.627Z,101355.83
2023-05-09T21:39:19.987Z,101352.03
2023-05-09T21:44:25.574Z,101354.61
2023-05-09T21:49:31.341Z,101354.42
2023-05-09T21:54:36.802Z,101353.54
2023-05-09T21:59:42.572Z,101357.31
2023-05-09T22:04:48.098Z,101359.89
2023-05-09T22:09:54.181Z,101364.72
2023-05-09T22:14:59.795Z,101363.83
2023-05-09T22:20:06.699Z,101361.07
2023-05-09T22:25:12.249Z,101359.33
2023-05-09T22:30:17.926Z,101358.22
2023-05-09T22:35:23.588Z,101356.27
2023-05-09T22:40:29.264Z,101354.50
2023-05-09T22:45:34.774Z,101353.43
2023-05-09T22:50:40.586Z,101350.21
2023-05-09T22:55:46.175Z,101347.37
2023-05-09T23:00:51.661Z,101350.59
2023-05-09T23:05:57.262Z,101344.59
2023-05-09T23:11:02.973Z,101343.80
2023-05-09T23:16:08.907Z,101341.09
2023-05-09T23:21:14.605Z,101341.14
2023-05-09T23:26:20.836Z,101339.16
2023-05-09T23:31:26.485Z,101337.70
2023-05-09T23:36:32.849Z,101344.11
2023-05-09T23:41:38.377Z,101345.02
2023-05-09T23:46:43.907Z,101338.02
2023-05-09T23:51:49.298Z,101331.52
2023-05-09T23:56:57.228Z,101331.73
